< < Back
Terminal Aerodrome Forecast


Current Version              Previous Versions:   1  2  3  4  5  6  7  8  9  

Terminal Aerodrome Forecast

791
FTUS42 KCHS 251131
TAFCHS
TAF
KCHS 251131Z 2512/2612 10008KT P6SM BKN060
     FM251800 14012KT P6SM BKN050
     FM260000 13006KT P6SM SCT025 SCT250=

Latest METAR

588
SAUS80 KWBC 251100
MTRCHS
METAR KCHS 251056Z 06004KT 10SM FEW050 BKN065 20/16 A3029 RMK AO2 SLP255
T02000161


USA.gov is the U.S. government's official web portal to all federal, state and local government web resources and services.